Time;durP1;ratioP1;P1;durP2;ratioP2;P2;SDS_P1;SDS_P2;PMS_P1;PMS_P2;Temp;Humidity;BMP_temperature;BMP_pressure;BME280_temperature;BME280_humidity;BME280_pressure;Samples;Min_cycle;Max_cycle;Signal;HPM_P1;HPM_P2
2022/12/29 00:01:22;;;;;;;7.00;3.08;;;13.00;99.90;;;;;;5033410;28;20120;-66
2022/12/29 00:03:48;;;;;;;4.80;2.88;;;13.10;99.90;;;;;;5032975;28;20055;-66
2022/12/29 00:06:13;;;;;;;7.78;2.90;;;13.20;99.90;;;;;;5030631;28;20095;-66
2022/12/29 00:08:39;;;;;;;5.07;2.88;;;12.80;99.90;;;;;;5022293;28;20049;-66
2022/12/29 00:11:07;;;;;;;4.38;2.28;;;12.80;99.90;;;;;;5030689;28;20041;-66
2022/12/29 00:16:17;;;;;;;2.92;1.85;;;13.20;99.90;;;;;;5040838;28;20106;-66
2022/12/29 00:18:43;;;;;;;4.20;2.00;;;13.20;99.90;;;;;;5031838;28;20045;-66
2022/12/29 00:35:08;;;;;;;5.50;2.10;;;13.00;99.90;;;;;;5032654;28;20171;-66
2022/12/29 00:45:47;;;;;;;4.80;2.08;;;13.10;99.90;;;;;;5030663;28;20473;-66
2022/12/29 00:48:13;;;;;;;8.40;1.88;;;13.00;99.90;;;;;;5030196;28;20077;-66
2022/12/29 00:50:38;;;;;;;6.47;2.00;;;13.00;99.90;;;;;;5032260;28;20124;-66
2022/12/29 00:53:04;;;;;;;6.25;2.05;;;13.10;99.90;;;;;;5031766;28;20052;-66
2022/12/29 00:55:29;;;;;;;6.95;2.30;;;13.20;99.90;;;;;;5031358;28;20087;-66
2022/12/29 00:57:55;;;;;;;4.72;2.25;;;13.10;99.90;;;;;;5027116;28;20040;-66
2022/12/29 01:00:20;;;;;;;5.50;2.25;;;13.10;99.90;;;;;;5024097;28;20072;-66
2022/12/29 01:02:46;;;;;;;6.07;1.90;;;13.00;99.90;;;;;;5022883;28;20045;-66
2022/12/29 01:05:11;;;;;;;5.97;2.10;;;13.20;99.90;;;;;;5031912;28;20049;-66
2022/12/29 01:07:37;;;;;;;6.20;2.63;;;13.20;99.90;;;;;;5030611;28;20406;-66
2022/12/29 01:10:11;;;;;;;6.68;2.47;;;13.30;99.90;;;;;;5030835;28;20138;-66
2022/12/29 01:12:40;;;;;;;5.78;2.65;;;13.00;99.90;;;;;;5030756;28;20046;-66
2022/12/29 01:15:07;;;;;;;7.05;2.67;;;13.00;99.90;;;;;;5031146;28;20060;-66
2022/12/29 01:17:33;;;;;;;5.65;2.90;;;13.40;99.90;;;;;;5026354;28;20612;-66
2022/12/29 01:19:59;;;;;;;3.53;2.90;;;13.00;99.90;;;;;;5030550;28;20045;-66
2022/12/29 01:22:24;;;;;;;4.68;2.63;;;13.30;99.90;;;;;;5031770;28;20039;-66
2022/12/29 01:24:50;;;;;;;4.10;2.60;;;12.90;99.90;;;;;;5030798;28;20042;-66
2022/12/29 01:27:15;;;;;;;5.22;3.20;;;13.00;99.90;;;;;;5026901;28;20044;-66
2022/12/29 01:29:41;;;;;;;5.18;3.13;;;13.10;99.90;;;;;;5030304;28;20033;-66
2022/12/29 01:32:06;;;;;;;3.78;2.65;;;13.20;99.90;;;;;;5036029;28;20041;-66
2022/12/29 01:34:32;;;;;;;3.97;3.15;;;13.10;99.90;;;;;;5036036;28;20399;-66
2022/12/29 01:36:57;;;;;;;3.15;2.60;;;12.00;99.90;;;;;;5034228;28;20448;-66
2022/12/29 01:39:23;;;;;;;5.78;3.20;;;13.00;99.90;;;;;;5027079;28;20446;-66
2022/12/29 01:41:49;;;;;;;7.55;2.90;;;13.30;99.90;;;;;;5014809;28;20415;-66
2022/12/29 01:44:48;;;;;;;8.80;3.10;;;13.20;99.90;;;;;;5026516;28;20116;-66
2022/12/29 01:47:35;;;;;;;5.13;2.47;;;13.00;99.90;;;;;;5031246;28;20037;-66
2022/12/29 01:50:16;;;;;;;5.35;3.03;;;13.10;99.90;;;;;;5035664;28;20503;-66
2022/12/29 01:52:57;;;;;;;4.78;3.15;;;12.90;99.90;;;;;;5015930;28;20533;-66
2022/12/29 01:55:24;;;;;;;3.95;2.67;;;12.80;99.90;;;;;;5014828;28;20438;-66
2022/12/29 01:57:52;;;;;;;7.20;3.20;;;12.70;99.90;;;;;;5032253;28;20037;-66
2022/12/29 02:00:18;;;;;;;2.95;2.65;;;12.70;99.90;;;;;;5035520;28;20132;-66
2022/12/29 02:02:54;;;;;;;3.58;2.80;;;12.60;99.90;;;;;;5034613;28;20077;-65
2022/12/29 02:05:55;;;;;;;7.45;3.08;;;13.10;99.90;;;;;;5034506;28;20044;-66
2022/12/29 02:08:24;;;;;;;4.22;3.05;;;12.70;99.90;;;;;;5009726;28;20136;-66
2022/12/29 02:10:50;;;;;;;4.78;2.75;;;12.70;99.90;;;;;;5035285;28;20049;-66
2022/12/29 02:13:17;;;;;;;4.05;2.75;;;12.70;99.90;;;;;;5033476;28;20128;-66
2022/12/29 02:15:51;;;;;;;3.38;2.40;;;12.70;99.90;;;;;;5032886;28;20049;-66
2022/12/29 02:18:22;;;;;;;3.22;2.20;;;12.60;99.90;;;;;;5034596;28;20037;-65
2022/12/29 02:21:23;;;;;;;3.03;1.98;;;12.40;99.90;;;;;;5033931;28;20088;-65
2022/12/29 02:24:10;;;;;;;7.22;1.70;;;12.40;99.90;;;;;;5034135;28;20092;-65
2022/12/29 02:26:45;;;;;;;6.10;1.55;;;12.30;99.90;;;;;;5033729;28;20524;-65
2022/12/29 02:29:28;;;;;;;1.63;1.00;;;12.70;99.90;;;;;;5020138;28;20041;-65
2022/12/29 02:32:10;;;;;;;4.75;1.38;;;12.40;99.90;;;;;;5022778;28;20083;-65
2022/12/29 02:34:47;;;;;;;2.50;1.20;;;12.70;99.90;;;;;;5025171;28;20507;-65
2022/12/29 02:37:18;;;;;;;1.75;0.98;;;12.50;99.90;;;;;;5031566;28;20060;-66
2022/12/29 02:40:01;;;;;;;6.15;1.00;;;12.70;99.90;;;;;;5034817;28;20041;-66
2022/12/29 02:42:35;;;;;;;3.58;1.20;;;12.70;99.90;;;;;;5033584;28;20042;-67
2022/12/29 02:45:07;;;;;;;4.53;1.20;;;12.80;99.90;;;;;;5033826;28;20726;-65
2022/12/29 02:47:50;;;;;;;6.60;1.10;;;12.40;99.90;;;;;;5032676;28;20033;-65
2022/12/29 02:50:37;;;;;;;5.85;1.17;;;12.50;99.90;;;;;;5034321;28;20581;-65
2022/12/29 02:53:06;;;;;;;;;;;12.70;99.90;;;;;;5034803;28;20036;-66
2022/12/29 02:55:31;;;;;;;1.90;1.00;;;12.60;99.90;;;;;;5026682;28;20336;-65
2022/12/29 02:58:20;;;;;;;2.25;0.90;;;12.90;99.90;;;;;;5021058;28;20168;-66
2022/12/29 03:01:18;;;;;;;5.80;1.73;;;12.90;99.90;;;;;;5017313;28;20392;-65
2022/12/29 03:04:20;;;;;;;4.75;1.60;;;12.50;99.90;;;;;;5032444;28;20041;-66
2022/12/29 03:06:53;;;;;;;8.05;2.05;;;12.70;99.90;;;;;;5022565;28;20511;-66
2022/12/29 03:09:45;;;;;;;13.98;2.88;;;12.50;99.90;;;;;;5034617;28;20089;-66
2022/12/29 03:18:40;;;;;;;10.35;2.58;;;13.20;99.90;;;;;;5016700;28;20099;-66
2022/12/29 03:22:26;;;;;;;17.92;2.38;;;12.50;99.90;;;;;;5030073;28;20045;-66
2022/12/29 03:24:11;;;;;;;16.67;3.33;;;12.40;99.90;;;;;;5014013;28;20108;-66
2022/12/29 03:26:37;;;;;;;16.17;2.90;;;12.10;99.90;;;;;;5018825;28;20047;-66
2022/12/29 03:29:05;;;;;;;21.83;4.10;;;12.30;99.90;;;;;;5033842;28;20037;-66
2022/12/29 03:31:31;;;;;;;14.55;3.25;;;12.20;99.90;;;;;;5033720;28;20045;-66
2022/12/29 03:33:57;;;;;;;17.55;3.08;;;12.20;99.90;;;;;;5013265;28;20045;-66
2022/12/29 03:36:30;;;;;;;21.35;3.15;;;12.10;99.90;;;;;;5015171;28;20042;-66
2022/12/29 03:39:17;;;;;;;19.40;3.08;;;12.40;99.90;;;;;;5030450;28;20045;-66
2022/12/29 03:41:44;;;;;;;11.25;2.40;;;12.50;99.90;;;;;;5033514;28;20049;-66
2022/12/29 03:44:12;;;;;;;14.13;3.00;;;12.30;99.90;;;;;;5032952;28;20053;-66
2022/12/29 03:46:38;;;;;;;19.52;4.18;;;12.40;99.90;;;;;;5021105;28;20395;-66
2022/12/29 03:49:03;;;;;;;13.82;3.22;;;12.40;99.90;;;;;;5013802;28;20046;-66
2022/12/29 03:51:29;;;;;;;14.90;4.05;;;12.20;99.90;;;;;;5013664;28;20050;-66
2022/12/29 03:53:55;;;;;;;10.73;3.33;;;12.20;99.90;;;;;;5014219;28;20483;-66
2022/12/29 03:56:21;;;;;;;17.20;3.60;;;12.00;99.90;;;;;;5032025;28;20033;-66
2022/12/29 03:58:46;;;;;;;21.83;3.33;;;12.50;99.90;;;;;;5033246;28;20521;-66
2022/12/29 04:01:12;;;;;;;18.73;4.18;;;12.10;99.90;;;;;;5033816;28;20049;-66
2022/12/29 04:03:38;;;;;;;20.17;3.42;;;11.80;99.90;;;;;;5032772;28;20121;-66
2022/12/29 04:06:04;;;;;;;21.73;3.90;;;12.00;99.90;;;;;;5032285;28;20037;-66
2022/12/29 04:08:29;;;;;;;16.58;4.03;;;12.20;99.90;;;;;;5032786;28;20045;-66
2022/12/29 04:10:55;;;;;;;20.33;3.58;;;12.10;99.90;;;;;;5028170;28;20042;-66
2022/12/29 04:13:21;;;;;;;18.10;3.28;;;12.30;99.90;;;;;;5013049;28;20046;-66
2022/12/29 04:15:46;;;;;;;22.08;4.25;;;12.10;99.90;;;;;;5014894;28;20044;-66
2022/12/29 04:18:13;;;;;;;24.85;4.72;;;12.10;99.90;;;;;;5033009;28;20478;-66
2022/12/29 04:23:23;;;;;;;27.27;4.47;;;12.10;99.90;;;;;;5032267;28;20037;-66
2022/12/29 04:25:48;;;;;;;27.58;5.82;;;11.90;99.90;;;;;;5031780;28;20470;-66
2022/12/29 04:28:15;;;;;;;24.08;5.68;;;11.80;99.90;;;;;;5031819;28;20052;-66
2022/12/29 04:30:42;;;;;;;21.75;4.50;;;11.90;99.90;;;;;;5031950;28;20047;-66
2022/12/29 04:33:07;;;;;;;27.67;4.15;;;11.60;99.90;;;;;;5032672;28;20045;-66
2022/12/29 04:35:33;;;;;;;30.83;5.43;;;11.80;99.90;;;;;;5032589;28;20034;-66
2022/12/29 04:37:58;;;;;;;29.15;5.95;;;11.80;99.90;;;;;;5030493;28;20065;-66
2022/12/29 04:40:24;;;;;;;26.33;4.90;;;11.80;99.90;;;;;;5031982;28;20566;-66
2022/12/29 04:42:50;;;;;;;29.52;5.18;;;11.80;99.90;;;;;;5032528;28;20509;-66
2022/12/29 04:45:16;;;;;;;29.00;4.93;;;11.80;99.90;;;;;;5032425;28;20040;-66
2022/12/29 04:47:42;;;;;;;17.63;4.93;;;11.90;99.90;;;;;;5029111;28;20045;-66
2022/12/29 04:50:08;;;;;;;28.83;5.28;;;12.30;99.90;;;;;;5012803;28;20049;-66
2022/12/29 04:52:33;;;;;;;27.10;4.82;;;12.00;99.90;;;;;;5012524;28;20598;-66
2022/12/29 04:54:59;;;;;;;23.95;4.97;;;12.00;99.90;;;;;;5031932;28;20033;-66
2022/12/29 04:57:25;;;;;;;29.42;4.82;;;12.10;99.90;;;;;;5031288;28;20137;-66
2022/12/29 04:59:51;;;;;;;35.70;6.22;;;12.00;99.90;;;;;;5032115;28;20095;-66
2022/12/29 05:02:17;;;;;;;25.48;4.85;;;11.90;99.90;;;;;;5031004;28;20033;-66
2022/12/29 05:04:42;;;;;;;32.22;5.20;;;12.20;99.90;;;;;;5031829;28;20548;-66
2022/12/29 05:07:09;;;;;;;30.17;4.95;;;12.20;99.90;;;;;;5023765;28;20038;-66
2022/12/29 05:09:34;;;;;;;36.55;6.28;;;12.30;99.90;;;;;;5029746;28;20095;-66
2022/12/29 05:12:00;;;;;;;29.27;5.82;;;12.10;99.90;;;;;;5029988;28;20483;-66
2022/12/29 05:14:26;;;;;;;31.85;5.55;;;11.80;99.90;;;;;;5027645;28;20505;-66
2022/12/29 05:16:52;;;;;;;27.70;4.78;;;11.90;99.90;;;;;;5023926;28;20030;-66
2022/12/29 05:19:17;;;;;;;24.92;4.57;;;12.40;99.90;;;;;;5026646;28;20072;-66
2022/12/29 05:21:43;;;;;;;21.35;4.35;;;12.10;99.90;;;;;;5028338;28;20044;-66
2022/12/29 05:24:09;;;;;;;31.73;6.22;;;12.20;99.90;;;;;;5026566;28;20413;-66
2022/12/29 05:26:34;;;;;;;26.60;5.90;;;12.10;1.00;;;;;;5027549;28;20073;-66
2022/12/29 05:29:00;;;;;;;23.38;3.80;;;11.90;1.00;;;;;;5027139;28;20045;-65
2022/12/29 05:31:26;;;;;;;25.88;4.63;;;11.80;99.90;;;;;;5027468;28;20038;-66
2022/12/29 05:33:52;;;;;;;20.45;4.85;;;12.20;1.00;;;;;;5031720;28;20029;-66
2022/12/29 05:36:18;;;;;;;24.25;4.65;;;12.40;99.90;;;;;;5021293;28;20048;-66
2022/12/29 05:38:43;;;;;;;17.40;4.45;;;12.60;99.90;;;;;;5029514;28;20045;-66
2022/12/29 05:41:09;;;;;;;31.58;5.50;;;13.00;99.90;;;;;;5026073;28;20089;-66
2022/12/29 05:43:35;;;;;;;23.98;5.00;;;12.10;1.00;;;;;;5018838;28;20037;-66
2022/12/29 05:46:01;;;;;;;21.77;4.40;;;12.30;99.90;;;;;;5030618;28;20136;-66
2022/12/29 05:48:27;;;;;;;27.05;5.72;;;12.00;99.60;;;;;;5031365;28;20410;-66
2022/12/29 05:50:52;;;;;;;18.17;4.60;;;12.10;1.00;;;;;;5030862;28;20038;-66
2022/12/29 05:53:18;;;;;;;12.95;3.60;;;12.00;99.90;;;;;;5030115;28;20095;-66
2022/12/29 05:55:46;;;;;;;29.55;5.32;;;12.00;99.90;;;;;;5030387;28;20033;-66
2022/12/29 05:58:11;;;;;;;23.27;4.97;;;12.40;99.90;;;;;;5028729;28;20041;-66
2022/12/29 06:00:37;;;;;;;23.17;5.30;;;12.10;1.00;;;;;;5029633;28;20043;-66
2022/12/29 06:03:03;;;;;;;27.70;5.07;;;11.70;99.90;;;;;;5031641;28;20038;-66
2022/12/29 06:05:29;;;;;;;30.85;5.85;;;11.70;97.60;;;;;;5028700;28;20045;-66
2022/12/29 06:07:54;;;;;;;26.60;5.13;;;11.40;1.00;;;;;;5029098;28;20052;-66
2022/12/29 06:10:20;;;;;;;35.10;6.18;;;11.60;1.00;;;;;;5029437;28;20121;-66
2022/12/29 06:12:46;;;;;;;26.65;5.90;;;11.70;1.00;;;;;;5031206;28;20053;-66
2022/12/29 06:15:12;;;;;;;26.38;4.63;;;11.60;1.00;;;;;;5027516;28;20502;-66
2022/12/29 06:17:39;;;;;;;30.73;5.80;;;11.50;99.90;;;;;;5033985;28;20029;-66
2022/12/29 06:20:05;;;;;;;24.17;5.82;;;11.40;99.90;;;;;;5033937;28;20498;-66
2022/12/29 06:22:30;;;;;;;26.08;5.20;;;11.40;99.90;;;;;;5033546;28;20045;-66
2022/12/29 06:24:56;;;;;;;28.23;4.90;;;11.50;1.00;;;;;;5033217;28;20037;-66
2022/12/29 06:27:22;;;;;;;20.83;5.25;;;11.70;1.00;;;;;;5024801;28;20112;-66
2022/12/29 06:29:47;;;;;;;29.55;6.28;;;11.90;1.00;;;;;;5023066;28;20029;-66
2022/12/29 06:32:13;;;;;;;23.45;4.72;;;11.80;1.00;;;;;;5021807;28;20041;-66
2022/12/29 06:34:38;;;;;;;30.13;5.72;;;12.00;1.00;;;;;;5030475;28;20068;-66
2022/12/29 06:37:04;;;;;;;23.75;5.13;;;12.50;18.40;;;;;;5031399;28;20091;-66
2022/12/29 06:39:29;;;;;;;29.42;5.15;;;12.00;1.00;;;;;;5034295;28;20515;-66
2022/12/29 06:41:55;;;;;;;29.88;6.20;;;12.00;1.00;;;;;;5028659;28;20034;-66
2022/12/29 06:44:21;;;;;;;26.88;6.10;;;11.70;1.00;;;;;;5029791;28;20041;-66
2022/12/29 06:46:47;;;;;;;31.40;5.35;;;11.70;1.00;;;;;;5029631;28;20052;-66
2022/12/29 06:49:13;;;;;;;32.72;6.07;;;11.80;1.00;;;;;;5034873;28;20042;-67
2022/12/29 06:51:39;;;;;;;26.00;5.45;;;11.80;1.00;;;;;;5033000;28;20049;-66
2022/12/29 06:54:05;;;;;;;26.17;5.45;;;11.60;1.00;;;;;;5032896;28;20069;-66
2022/12/29 06:56:31;;;;;;;33.08;6.05;;;11.70;1.00;;;;;;5034105;28;20040;-66
2022/12/29 06:58:56;;;;;;;30.48;6.15;;;11.80;99.90;;;;;;5031166;28;20084;-66
2022/12/29 07:01:22;;;;;;;31.67;5.35;;;11.50;99.90;;;;;;5033201;28;20037;-65
2022/12/29 07:03:48;;;;;;;27.13;6.57;;;11.70;99.90;;;;;;5025551;28;20045;-66
2022/12/29 07:06:14;;;;;;;35.17;6.75;;;11.60;99.90;;;;;;5034254;28;20046;-66
2022/12/29 07:08:39;;;;;;;30.33;5.47;;;11.60;99.90;;;;;;5032067;28;20102;-66
2022/12/29 07:11:05;;;;;;;33.83;6.75;;;11.40;99.90;;;;;;5032863;28;20475;-66
2022/12/29 07:13:31;;;;;;;36.35;5.80;;;11.40;99.90;;;;;;5027975;28;20087;-66
2022/12/29 07:15:56;;;;;;;29.08;4.53;;;11.60;99.90;;;;;;5034143;28;20466;-66
2022/12/29 07:18:22;;;;;;;36.10;6.60;;;11.40;45.60;;;;;;5033170;28;20036;-66
2022/12/29 07:20:48;;;;;;;31.92;6.22;;;11.40;1.00;;;;;;5031413;28;20121;-65
2022/12/29 07:23:13;;;;;;;32.95;6.00;;;11.50;1.00;;;;;;5031550;28;20042;-66
2022/12/29 07:25:41;;;;;;;26.58;5.25;;;12.20;1.00;;;;;;5031964;28;20569;-67
2022/12/29 07:28:06;;;;;;;29.65;5.68;;;11.40;99.90;;;;;;5030236;28;20049;-66
2022/12/29 07:30:32;;;;;;;22.73;6.10;;;11.20;99.90;;;;;;5032580;28;20033;-66
2022/12/29 07:32:58;;;;;;;33.38;6.78;;;11.40;99.90;;;;;;5028306;28;20069;-65
2022/12/29 07:35:23;;;;;;;26.83;6.38;;;11.20;1.00;;;;;;5028860;28;20041;-65
2022/12/29 07:37:50;;;;;;;30.73;6.80;;;11.40;1.00;;;;;;5021844;28;20037;-65
2022/12/29 07:40:15;;;;;;;28.73;6.25;;;11.30;99.90;;;;;;5031251;28;20482;-65
2022/12/29 07:42:41;;;;;;;34.53;6.57;;;11.40;99.90;;;;;;5026457;28;20033;-66
2022/12/29 07:45:09;;;;;;;29.75;6.28;;;11.50;99.90;;;;;;5031126;28;20099;-66
2022/12/29 07:47:34;;;;;;;27.55;5.90;;;11.60;99.90;;;;;;5031479;28;20372;-66
2022/12/29 07:50:00;;;;;;;21.65;5.07;;;11.80;99.90;;;;;;5024408;28;20033;-66
2022/12/29 07:52:25;;;;;;;27.60;5.15;;;11.40;99.90;;;;;;5029515;28;20069;-66
2022/12/29 07:54:51;;;;;;;31.52;5.97;;;11.40;1.00;;;;;;5030888;28;20479;-66
2022/12/29 07:57:17;;;;;;;30.13;6.47;;;11.40;99.90;;;;;;5031005;28;20475;-66
2022/12/29 07:59:43;;;;;;;28.02;5.53;;;11.50;1.00;;;;;;5027714;28;20103;-66
2022/12/29 08:02:12;;;;;;;30.08;6.55;;;11.70;99.90;;;;;;5021091;28;20049;-67
2022/12/29 08:04:37;;;;;;;37.88;6.90;;;11.60;99.90;;;;;;5019596;28;20053;-66
2022/12/29 08:07:03;;;;;;;30.95;6.47;;;11.70;99.90;;;;;;5022214;28;20353;-66
2022/12/29 08:09:29;;;;;;;26.10;5.47;;;11.80;99.90;;;;;;5032574;28;20045;-66
2022/12/29 08:11:54;;;;;;;24.35;5.03;;;11.90;99.90;;;;;;5026691;28;20079;-66
2022/12/29 08:14:20;;;;;;;28.15;5.75;;;11.70;99.90;;;;;;5028867;28;20045;-66
2022/12/29 08:16:46;;;;;;;24.38;6.15;;;11.70;1.00;;;;;;5025038;28;20052;-66
2022/12/29 08:19:12;;;;;;;28.63;5.80;;;11.60;1.00;;;;;;5031077;28;20091;-66
2022/12/29 08:21:38;;;;;;;28.13;6.90;;;11.60;1.00;;;;;;5031886;28;20037;-66
2022/12/29 08:24:04;;;;;;;34.67;6.72;;;11.60;75.80;;;;;;5029785;28;20191;-66
2022/12/29 08:26:29;;;;;;;36.17;6.88;;;11.40;99.90;;;;;;5030825;28;20049;-66
2022/12/29 08:28:56;;;;;;;41.20;7.85;;;11.30;99.90;;;;;;5032689;28;20131;-66
2022/12/29 08:31:22;;;;;;;41.13;8.38;;;11.20;99.90;;;;;;5029499;28;20051;-66
2022/12/29 08:33:48;;;;;;;54.53;8.43;;;11.40;99.90;;;;;;5023312;28;20037;-66
2022/12/29 08:36:14;;;;;;;39.70;7.50;;;11.30;99.90;;;;;;5029540;28;20044;-69
2022/12/29 08:38:39;;;;;;;36.80;7.15;;;11.00;99.90;;;;;;5027800;28;20041;-65
2022/12/29 08:41:05;;;;;;;36.40;6.88;;;10.70;1.00;;;;;;5029131;28;20041;-65
2022/12/29 08:43:30;;;;;;;41.75;6.97;;;10.70;1.00;;;;;;5027418;28;20033;-65
2022/12/29 08:45:57;;;;;;;36.78;6.50;;;10.70;99.90;;;;;;5009906;28;20049;-66
2022/12/29 08:48:24;;;;;;;37.33;6.47;;;11.20;1.00;;;;;;5026744;28;20087;-66
2022/12/29 08:50:50;;;;;;;27.23;6.57;;;11.30;40.80;;;;;;5030813;28;20046;-65
2022/12/29 08:53:17;;;;;;;36.55;7.22;;;11.10;99.90;;;;;;5023634;28;20390;-65
2022/12/29 08:55:46;;;;;;;32.30;6.15;;;11.40;99.90;;;;;;5022438;28;20057;-66
2022/12/29 08:58:14;;;;;;;34.67;7.30;;;11.10;99.90;;;;;;5030553;28;20475;-69
2022/12/29 09:00:41;;;;;;;31.75;5.95;;;11.40;99.90;;;;;;5030405;28;20045;-67
2022/12/29 09:03:06;;;;;;;34.17;6.88;;;11.60;99.90;;;;;;5029434;28;20056;-65
2022/12/29 09:05:32;;;;;;;27.00;6.43;;;11.70;99.90;;;;;;5025231;28;20033;-65
2022/12/29 09:07:57;;;;;;;30.83;5.97;;;11.80;99.90;;;;;;5029330;28;20080;-65
2022/12/29 09:10:23;;;;;;;39.05;6.78;;;11.80;99.90;;;;;;5028160;28;20042;-65
2022/12/29 09:12:49;;;;;;;38.38;8.07;;;11.60;99.90;;;;;;5024663;28;20085;-65
2022/12/29 09:15:15;;;;;;;40.63;7.05;;;11.40;99.90;;;;;;5031097;28;20037;-66
2022/12/29 09:17:45;;;;;;;37.35;7.68;;;11.30;99.90;;;;;;5030692;28;20048;-66
2022/12/29 09:20:16;;;;;;;34.22;6.80;;;11.10;99.90;;;;;;5027762;28;20494;-65
2022/12/29 09:22:42;;;;;;;36.83;6.53;;;11.30;99.90;;;;;;5019715;28;20044;-65
2022/12/29 09:25:09;;;;;;;46.53;6.97;;;11.50;99.90;;;;;;5022110;28;20041;-66
2022/12/29 09:27:35;;;;;;;30.00;6.75;;;11.00;99.90;;;;;;5024437;28;20021;-65
2022/12/29 09:30:02;;;;;;;34.25;7.18;;;10.90;99.90;;;;;;5026324;28;20060;-66
2022/12/29 09:32:28;;;;;;;34.85;7.15;;;11.10;99.90;;;;;;5021642;28;20037;-65
2022/12/29 09:34:53;;;;;;;36.22;8.35;;;11.50;99.90;;;;;;5021543;28;20064;-66
2022/12/29 09:37:19;;;;;;;40.65;7.05;;;11.20;99.90;;;;;;5017278;28;20033;-65
2022/12/29 09:39:45;;;;;;;48.55;7.10;;;12.10;99.90;;;;;;5030893;28;20026;-66
2022/12/29 09:42:23;;;;;;;37.90;7.07;;;11.50;99.90;;;;;;5027490;28;20052;-65
2022/12/29 09:44:54;;;;;;;39.05;7.68;;;11.60;99.90;;;;;;5027909;28;20045;-66
2022/12/29 09:47:20;;;;;;;44.47;8.23;;;11.70;99.90;;;;;;5023919;28;20491;-66
2022/12/29 09:50:00;;;;;;;67.80;11.95;;;11.90;99.90;;;;;;5028911;28;20484;-66
2022/12/29 09:52:31;;;;;;;59.15;9.18;;;11.90;99.90;;;;;;5032736;28;20037;-66
2022/12/29 09:55:01;;;;;;;56.60;8.98;;;11.40;99.90;;;;;;5023835;28;20436;-66
2022/12/29 09:57:33;;;;;;;48.42;8.07;;;11.40;99.90;;;;;;5031157;28;20033;-65
2022/12/29 10:00:04;;;;;;;51.28;9.05;;;11.40;99.90;;;;;;5033586;28;20037;-65
2022/12/29 10:02:43;;;;;;;56.22;8.63;;;11.10;99.90;;;;;;5025335;28;20042;-66
2022/12/29 10:05:30;;;;;;;56.47;8.40;;;11.00;99.90;;;;;;5021149;28;20522;-66
2022/12/29 10:08:17;;;;;;;42.67;7.55;;;10.70;99.90;;;;;;5031040;28;20025;-66
2022/12/29 10:10:58;;;;;;;56.95;8.57;;;11.00;99.90;;;;;;5027755;28;20915;-66
2022/12/29 10:13:42;;;;;;;53.03;7.95;;;10.60;99.90;;;;;;5024063;28;20068;-66
2022/12/29 10:16:35;;;;;;;46.90;7.75;;;10.80;99.90;;;;;;5029849;28;20053;-66
2022/12/29 10:19:31;;;;;;;41.67;7.40;;;10.50;99.90;;;;;;5024971;28;20041;-66
2022/12/29 10:22:11;;;;;;;47.75;7.68;;;10.40;99.90;;;;;;4993606;28;20064;-66
2022/12/29 10:24:38;;;;;;;49.05;8.15;;;10.30;99.90;;;;;;5028785;28;20039;-67
2022/12/29 10:27:10;;;;;;;44.80;6.90;;;10.40;99.90;;;;;;5027764;28;20033;-66
2022/12/29 10:29:41;;;;;;;33.75;5.88;;;10.50;99.90;;;;;;5034549;28;20048;-67
2022/12/29 10:32:24;;;;;;;29.27;6.32;;;10.40;99.90;;;;;;5033494;28;20037;-67
2022/12/29 10:34:58;;;;;;;31.67;5.57;;;10.40;99.90;;;;;;5009071;28;20048;-66
2022/12/29 10:37:37;;;;;;;29.35;5.43;;;10.30;99.90;;;;;;5033452;28;20025;-67
2022/12/29 10:40:19;;;;;;;23.15;4.72;;;10.50;99.90;;;;;;5030700;28;20041;-67
2022/12/29 10:42:51;;;;;;;37.47;5.90;;;10.30;99.90;;;;;;5013436;28;20044;-67
2022/12/29 10:45:20;;;;;;;34.13;6.05;;;10.40;99.90;;;;;;5032167;28;20098;-67
2022/12/29 10:48:03;;;;;;;31.95;5.32;;;10.70;99.90;;;;;;5032976;28;20150;-67
2022/12/29 10:50:29;;;;;;;38.58;5.65;;;11.30;99.90;;;;;;5032887;28;20041;-66
2022/12/29 10:53:02;;;;;;;35.55;6.25;;;10.90;99.90;;;;;;5026996;28;20513;-66
2022/12/29 10:55:32;;;;;;;33.15;5.55;;;10.80;1.00;;;;;;5031741;28;20048;-66
2022/12/29 10:58:04;;;;;;;25.73;4.75;;;10.80;1.00;;;;;;5029851;28;20034;-66
2022/12/29 11:00:31;;;;;;;30.70;5.22;;;10.90;99.90;;;;;;5026617;28;20091;-66
2022/12/29 11:03:48;;;;;;;25.75;4.72;;;11.00;1.00;;;;;;5022585;28;20044;-66
2022/12/29 11:06:27;;;;;;;28.92;4.60;;;11.00;99.90;;;;;;5020129;28;20088;-67
2022/12/29 11:09:09;;;;;;;26.80;4.50;;;10.90;99.90;;;;;;5027323;28;20613;-66
2022/12/29 11:11:36;;;;;;;27.73;4.45;;;11.10;25.70;;;;;;5018932;28;20125;-66
2022/12/29 11:14:13;;;;;;;18.52;3.70;;;11.20;99.90;;;;;;5032689;28;20073;-66
2022/12/29 11:16:41;;;;;;;21.33;4.15;;;11.10;99.90;;;;;;5025516;28;20542;-66
2022/12/29 11:19:23;;;;;;;16.48;3.65;;;11.20;1.00;;;;;;5028511;28;20037;-66
2022/12/29 11:21:50;;;;;;;31.45;4.18;;;11.40;99.90;;;;;;5023922;28;20081;-66
2022/12/29 11:24:25;;;;;;;20.58;3.70;;;11.40;1.00;;;;;;5031866;28;20076;-66
2022/12/29 11:26:57;;;;;;;21.90;3.63;;;11.30;99.90;;;;;;5024025;28;20041;-66
2022/12/29 11:29:37;;;;;;;18.25;3.30;;;11.40;1.00;;;;;;5032904;28;20479;-66
2022/12/29 11:32:18;;;;;;;22.13;3.72;;;11.50;99.90;;;;;;5030539;28;20049;-66
2022/12/29 11:34:44;;;;;;;20.13;3.60;;;11.50;99.90;;;;;;5033927;28;20043;-66
2022/12/29 11:37:28;;;;;;;30.33;3.85;;;11.70;36.90;;;;;;5025399;28;20116;-67
2022/12/29 11:40:07;;;;;;;23.15;3.55;;;11.80;1.00;;;;;;5029749;28;20033;-67
2022/12/29 11:42:47;;;;;;;14.80;3.20;;;11.70;99.90;;;;;;5030238;28;20041;-67
2022/12/29 11:45:25;;;;;;;18.15;3.75;;;11.80;99.90;;;;;;5030200;28;20112;-67
2022/12/29 11:47:54;;;;;;;25.10;4.18;;;11.90;99.90;;;;;;5028595;28;20107;-67
2022/12/29 11:50:30;;;;;;;25.40;4.30;;;11.90;63.20;;;;;;5030158;28;20392;-67
2022/12/29 11:53:05;;;;;;;22.23;4.05;;;12.00;1.00;;;;;;5031732;28;20049;-67
2022/12/29 11:55:32;;;;;;;27.23;4.35;;;12.00;1.00;;;;;;5030611;28;20041;-66
2022/12/29 11:58:01;;;;;;;15.77;3.20;;;11.90;99.90;;;;;;5023161;28;20038;-66
2022/12/29 12:00:28;;;;;;;20.55;3.88;;;11.80;99.90;;;;;;5017156;28;20065;-66
2022/12/29 12:03:12;;;;;;;23.23;3.75;;;11.60;99.90;;;;;;5012534;28;20510;-66
2022/12/29 12:05:44;;;;;;;22.30;3.90;;;11.60;1.00;;;;;;5015169;28;20545;-66
2022/12/29 12:08:41;;;;;;;23.60;4.28;;;11.40;1.00;;;;;;5032015;28;20124;-66
2022/12/29 12:11:36;;;;;;;18.27;3.88;;;11.40;1.00;;;;;;5030906;28;20041;-69
2022/12/29 12:14:29;;;;;;;19.83;3.75;;;11.50;1.00;;;;;;5019185;28;20038;-67
2022/12/29 12:17:21;;;;;;;26.75;4.45;;;11.70;1.00;;;;;;5017894;28;20069;-68
2022/12/29 12:20:15;;;;;;;22.38;4.03;;;11.90;1.00;;;;;;5031820;28;20376;-67
2022/12/29 12:22:48;;;;;;;23.23;3.67;;;12.00;1.00;;;;;;5027511;28;20037;-67
2022/12/29 12:25:25;;;;;;;34.67;4.57;;;12.80;1.00;;;;;;5028966;28;20486;-70
2022/12/29 12:28:10;;;;;;;24.35;4.53;;;11.80;99.90;;;;;;5028152;28;20041;-70
2022/12/29 12:30:50;;;;;;;20.05;3.63;;;11.60;99.90;;;;;;5022959;28;20056;-69
2022/12/29 12:33:32;;;;;;;20.70;3.72;;;11.90;99.90;;;;;;5024613;28;20498;-69
2022/12/29 12:36:33;;;;;;;29.92;4.28;;;11.30;99.90;;;;;;5028176;28;20516;-70
2022/12/29 12:39:05;;;;;;;17.17;3.40;;;11.20;99.90;;;;;;5032540;28;20040;-70
2022/12/29 12:41:56;;;;;;;21.38;3.80;;;11.00;99.90;;;;;;5026942;28;20061;-69
2022/12/29 12:44:36;;;;;;;18.77;3.40;;;11.30;99.90;;;;;;5027491;28;20061;-70
2022/12/29 12:47:11;;;;;;;19.83;3.42;;;11.60;1.00;;;;;;5027719;28;20041;-70
2022/12/29 12:49:39;;;;;;;23.63;3.95;;;11.60;1.00;;;;;;5025545;28;20050;-70
2022/12/29 12:52:32;;;;;;;20.88;3.58;;;11.60;1.00;;;;;;5030736;28;20403;-69
2022/12/29 12:55:16;;;;;;;25.88;3.83;;;11.70;99.90;;;;;;5031920;28;20119;-69
2022/12/29 12:57:56;;;;;;;24.50;3.50;;;11.60;99.90;;;;;;5013989;28;20046;-69
2022/12/29 13:00:23;;;;;;;20.23;3.10;;;11.40;99.90;;;;;;5019957;28;20073;-69
2022/12/29 13:03:07;;;;;;;17.15;3.83;;;11.20;99.90;;;;;;5028113;28;20088;-69
2022/12/29 13:05:49;;;;;;;23.98;3.97;;;11.00;99.90;;;;;;5026739;28;20056;-69
2022/12/29 13:08:31;;;;;;;20.02;3.60;;;11.20;99.90;;;;;;5031573;28;20046;-69
2022/12/29 13:11:23;;;;;;;17.42;2.83;;;11.50;99.90;;;;;;5028631;28;20044;-69
2022/12/29 13:13:55;;;;;;;23.63;4.10;;;11.50;99.90;;;;;;5026869;28;20060;-69
2022/12/29 13:16:33;;;;;;;17.27;3.67;;;11.50;99.90;;;;;;5028487;28;20030;-69
2022/12/29 13:19:25;;;;;;;17.35;4.20;;;11.20;99.90;;;;;;5026444;28;20584;-69
2022/12/29 13:22:27;;;;;;;17.50;3.72;;;11.00;99.90;;;;;;5021181;28;20045;-70
2022/12/29 13:25:26;;;;;;;23.88;4.15;;;10.80;99.90;;;;;;5022360;28;20049;-70
2022/12/29 13:28:14;;;;;;;20.17;4.55;;;10.90;1.00;;;;;;5022862;28;20037;-69
2022/12/29 13:30:45;;;;;;;21.27;3.45;;;11.20;99.90;;;;;;5030959;28;20533;-69
2022/12/29 13:33:42;;;;;;;20.17;3.45;;;11.20;1.00;;;;;;5031932;28;20071;-69
2022/12/29 13:36:35;;;;;;;21.77;3.40;;;11.40;1.00;;;;;;5031745;28;20037;-69